sensor_id;sensor_type;location;lat;lon;timestamp;pressure;altitude;pressure_sealevel;temperature;humidity
62978;BME280;49073;42.352;23.808;2023-01-27T00:02:36;93834.59;;;-0.43;100.00
62978;BME280;49073;42.352;23.808;2023-01-27T00:05:37;93823.53;;;-0.32;100.00
62978;BME280;49073;42.352;23.808;2023-01-27T00:08:39;93819.66;;;-0.43;100.00
62978;BME280;49073;42.352;23.808;2023-01-27T00:11:40;93811.97;;;-0.39;100.00
62978;BME280;49073;42.352;23.808;2023-01-27T00:14:59;93813.97;;;-0.36;100.00
62978;BME280;49073;42.352;23.808;2023-01-27T00:18:00;93818.44;;;-0.37;100.00
62978;BME280;49073;42.352;23.808;2023-01-27T00:21:02;93809.97;;;-0.42;100.00
62978;BME280;49073;42.352;23.808;2023-01-27T00:24:21;93797.97;;;-0.43;100.00
62978;BME280;49073;42.352;23.808;2023-01-27T00:27:36;93818.13;;;-0.44;100.00
62978;BME280;49073;42.352;23.808;2023-01-27T00:30:37;93842.50;;;-0.66;100.00
62978;BME280;49073;42.352;23.808;2023-01-27T00:33:38;93861.06;;;-0.85;100.00
62978;BME280;49073;42.352;23.808;2023-01-27T00:36:40;93831.22;;;-0.84;100.00
62978;BME280;49073;42.352;23.808;2023-01-27T00:39:41;93835.41;;;-0.75;100.00
62978;BME280;49073;42.352;23.808;2023-01-27T00:42:42;93839.47;;;-0.60;100.00
62978;BME280;49073;42.352;23.808;2023-01-27T00:45:45;93861.53;;;-0.52;100.00
62978;BME280;49073;42.352;23.808;2023-01-27T00:48:49;93851.09;;;-0.34;100.00
62978;BME280;49073;42.352;23.808;2023-01-27T00:51:52;93848.47;;;-0.34;100.00
62978;BME280;49073;42.352;23.808;2023-01-27T00:54:54;93852.31;;;-0.32;100.00
62978;BME280;49073;42.352;23.808;2023-01-27T00:57:54;93842.03;;;-0.28;100.00
62978;BME280;49073;42.352;23.808;2023-01-27T01:01:00;93824.00;;;-0.30;100.00
62978;BME280;49073;42.352;23.808;2023-01-27T01:04:01;93809.69;;;-0.32;100.00
62978;BME280;49073;42.352;23.808;2023-01-27T01:07:02;93809.69;;;-0.32;100.00
62978;BME280;49073;42.352;23.808;2023-01-27T01:10:03;93809.97;;;-0.42;100.00
62978;BME280;49073;42.352;23.808;2023-01-27T01:13:05;93810.41;;;-0.49;100.00
62978;BME280;49073;42.352;23.808;2023-01-27T01:16:15;93813.06;;;-0.40;100.00
62978;BME280;49073;42.352;23.808;2023-01-27T01:19:16;93812.41;;;-0.46;100.00
62978;BME280;49073;42.352;23.808;2023-01-27T01:22:17;93816.44;;;-0.40;100.00
62978;BME280;49073;42.352;23.808;2023-01-27T01:25:17;93841.84;;;-0.40;100.00
62978;BME280;49073;42.352;23.808;2023-01-27T01:28:18;93841.78;;;-0.58;100.00
62978;BME280;49073;42.352;23.808;2023-01-27T01:31:19;93832.72;;;-0.52;100.00
62978;BME280;49073;42.352;23.808;2023-01-27T01:34:19;93823.19;;;-0.39;100.00
62978;BME280;49073;42.352;23.808;2023-01-27T01:37:20;93807.97;;;-0.37;100.00
62978;BME280;49073;42.352;23.808;2023-01-27T01:40:21;93800.13;;;-0.28;100.00
62978;BME280;49073;42.352;23.808;2023-01-27T01:43:22;93807.53;;;-0.30;100.00
62978;BME280;49073;42.352;23.808;2023-01-27T01:46:22;93790.13;;;-0.26;100.00
62978;BME280;49073;42.352;23.808;2023-01-27T01:49:28;93767.97;;;-0.20;100.00
62978;BME280;49073;42.352;23.808;2023-01-27T01:52:29;93756.41;;;-0.19;100.00
62978;BME280;49073;42.352;23.808;2023-01-27T01:55:31;93758.09;;;-0.32;100.00
62978;BME280;49073;42.352;23.808;2023-01-27T01:58:34;93772.25;;;-0.33;100.00
62978;BME280;49073;42.352;23.808;2023-01-27T02:01:35;93766.88;;;-0.19;100.00
62978;BME280;49073;42.352;23.808;2023-01-27T02:04:42;93762.72;;;-0.28;100.00
62978;BME280;49073;42.352;23.808;2023-01-27T02:07:56;93758.25;;;-0.28;100.00
62978;BME280;49073;42.352;23.808;2023-01-27T02:10:58;93746.09;;;-0.24;100.00
62978;BME280;49073;42.352;23.808;2023-01-27T02:14:00;93742.72;;;-0.24;100.00
62978;BME280;49073;42.352;23.808;2023-01-27T02:17:03;93775.63;;;-0.41;100.00
62978;BME280;49073;42.352;23.808;2023-01-27T02:26:54;93777.84;;;-0.75;100.00
62978;BME280;49073;42.352;23.808;2023-01-27T02:29:54;93776.09;;;-0.48;100.00
62978;BME280;49073;42.352;23.808;2023-01-27T02:32:55;93761.78;;;-0.33;100.00
62978;BME280;49073;42.352;23.808;2023-01-27T02:36:12;93749.31;;;-0.36;100.00
62978;BME280;49073;42.352;23.808;2023-01-27T02:39:14;93741.91;;;-0.42;100.00
62978;BME280;49073;42.352;23.808;2023-01-27T02:42:16;93737.31;;;-0.28;100.00
62978;BME280;49073;42.352;23.808;2023-01-27T02:45:18;93710.50;;;-0.25;100.00
62978;BME280;49073;42.352;23.808;2023-01-27T02:48:19;93715.44;;;-0.32;100.00
62978;BME280;49073;42.352;23.808;2023-01-27T02:51:19;93703.59;;;-0.38;100.00
62978;BME280;49073;42.352;23.808;2023-01-27T02:54:20;93706.06;;;-0.24;100.00
62978;BME280;49073;42.352;23.808;2023-01-27T02:57:20;93715.63;;;-0.28;100.00
62978;BME280;49073;42.352;23.808;2023-01-27T03:00:22;93726.53;;;-0.35;100.00
62978;BME280;49073;42.352;23.808;2023-01-27T03:03:23;93722.34;;;-0.45;100.00
62978;BME280;49073;42.352;23.808;2023-01-27T03:06:24;93705.28;;;-0.42;100.00
62978;BME280;49073;42.352;23.808;2023-01-27T03:09:25;93696.81;;;-0.39;100.00
62978;BME280;49073;42.352;23.808;2023-01-27T03:12:26;93687.56;;;-0.37;100.00
62978;BME280;49073;42.352;23.808;2023-01-27T03:15:26;93685.88;;;-0.33;100.00
62978;BME280;49073;42.352;23.808;2023-01-27T03:18:46;93682.16;;;-0.32;100.00
62978;BME280;49073;42.352;23.808;2023-01-27T03:21:48;93680.78;;;-0.29;100.00
62978;BME280;49073;42.352;23.808;2023-01-27T03:24:50;93680.63;;;-0.24;100.00
62978;BME280;49073;42.352;23.808;2023-01-27T03:27:50;93699.91;;;-0.28;100.00
62978;BME280;49073;42.352;23.808;2023-01-27T03:31:00;93710.66;;;-0.30;100.00
62978;BME280;49073;42.352;23.808;2023-01-27T03:34:01;93719.91;;;-0.41;100.00
62978;BME280;49073;42.352;23.808;2023-01-27T03:37:01;93706.81;;;-0.41;100.00
62978;BME280;49073;42.352;23.808;2023-01-27T03:40:20;93717.28;;;-0.41;100.00
62978;BME280;49073;42.352;23.808;2023-01-27T03:43:39;93715.75;;;-0.34;100.00
62978;BME280;49073;42.352;23.808;2023-01-27T03:46:58;93696.03;;;-0.13;100.00
62978;BME280;49073;42.352;23.808;2023-01-27T03:49:59;93691.72;;;-0.27;100.00
62978;BME280;49073;42.352;23.808;2023-01-27T03:52:59;93717.91;;;-0.36;100.00
62978;BME280;49073;42.352;23.808;2023-01-27T03:56:03;93718.38;;;-0.42;100.00
62978;BME280;49073;42.352;23.808;2023-01-27T03:59:05;93707.88;;;-0.34;100.00
62978;BME280;49073;42.352;23.808;2023-01-27T04:02:05;93710.22;;;-0.32;100.00
62978;BME280;49073;42.352;23.808;2023-01-27T04:05:24;93723.75;;;-0.30;100.00
62978;BME280;49073;42.352;23.808;2023-01-27T04:08:43;93734.81;;;-0.42;100.00
62978;BME280;49073;42.352;23.808;2023-01-27T04:11:44;93729.59;;;-0.33;100.00
62978;BME280;49073;42.352;23.808;2023-01-27T04:14:54;93721.59;;;-0.28;100.00
62978;BME280;49073;42.352;23.808;2023-01-27T04:17:54;93724.84;;;-0.22;100.00
62978;BME280;49073;42.352;23.808;2023-01-27T04:20:55;93731.47;;;-0.25;100.00
62978;BME280;49073;42.352;23.808;2023-01-27T04:23:56;93733.78;;;-0.32;100.00
62978;BME280;49073;42.352;23.808;2023-01-27T04:26:59;93743.16;;;-0.31;100.00
62978;BME280;49073;42.352;23.808;2023-01-27T04:29:59;93745.94;;;-0.36;100.00
62978;BME280;49073;42.352;23.808;2023-01-27T04:33:01;93739.16;;;-0.20;100.00
62978;BME280;49073;42.352;23.808;2023-01-27T04:36:03;93734.53;;;-0.05;100.00
62978;BME280;49073;42.352;23.808;2023-01-27T04:39:04;93722.22;;;-0.13;100.00
62978;BME280;49073;42.352;23.808;2023-01-27T04:42:05;93730.41;;;-0.15;100.00
62978;BME280;49073;42.352;23.808;2023-01-27T04:45:06;93726.38;;;-0.12;100.00
62978;BME280;49073;42.352;23.808;2023-01-27T04:48:06;93727.94;;;-0.20;100.00
62978;BME280;49073;42.352;23.808;2023-01-27T04:51:07;93730.22;;;-0.19;100.00
62978;BME280;49073;42.352;23.808;2023-01-27T04:54:08;93727.91;;;-0.11;100.00
62978;BME280;49073;42.352;23.808;2023-01-27T04:57:08;93722.53;;;0.03;100.00
62978;BME280;49073;42.352;23.808;2023-01-27T05:00:11;93710.22;;;0.03;100.00
62978;BME280;49073;42.352;23.808;2023-01-27T05:03:12;93713.13;;;-0.07;100.00
62978;BME280;49073;42.352;23.808;2023-01-27T05:06:13;93722.06;;;-0.08;100.00
62978;BME280;49073;42.352;23.808;2023-01-27T05:09:13;93704.66;;;-0.04;100.00
62978;BME280;49073;42.352;23.808;2023-01-27T05:12:14;93706.19;;;0.06;100.00
62978;BME280;49073;42.352;23.808;2023-01-27T05:15:15;93694.19;;;-0.04;100.00
62978;BME280;49073;42.352;23.808;2023-01-27T05:18:15;93691.25;;;-0.11;100.00
62978;BME280;49073;42.352;23.808;2023-01-27T05:21:21;93688.34;;;-0.10;100.00
62978;BME280;49073;42.352;23.808;2023-01-27T05:24:22;93687.41;;;-0.14;100.00
62978;BME280;49073;42.352;23.808;2023-01-27T05:27:23;93681.72;;;-0.16;100.00
62978;BME280;49073;42.352;23.808;2023-01-27T05:30:23;93690.97;;;-0.27;100.00
62978;BME280;49073;42.352;23.808;2023-01-27T05:33:24;93696.50;;;-0.47;100.00
62978;BME280;49073;42.352;23.808;2023-01-27T05:36:25;93705.72;;;-0.49;100.00
62978;BME280;49073;42.352;23.808;2023-01-27T05:39:26;93702.19;;;-0.53;100.00
62978;BME280;49073;42.352;23.808;2023-01-27T05:42:27;93702.50;;;-0.37;100.00
62978;BME280;49073;42.352;23.808;2023-01-27T05:45:27;93711.75;;;-0.49;100.00
62978;BME280;49073;42.352;23.808;2023-01-27T05:48:28;93716.06;;;-0.35;100.00
62978;BME280;49073;42.352;23.808;2023-01-27T05:51:31;93726.22;;;-0.25;100.00
62978;BME280;49073;42.352;23.808;2023-01-27T05:54:32;93722.69;;;-0.20;100.00
62978;BME280;49073;42.352;23.808;2023-01-27T05:57:32;93719.28;;;-0.21;100.00
62978;BME280;49073;42.352;23.808;2023-01-27T06:00:33;93712.84;;;-0.23;100.00
62978;BME280;49073;42.352;23.808;2023-01-27T06:03:33;93715.13;;;-0.04;100.00
62978;BME280;49073;42.352;23.808;2023-01-27T06:06:34;93718.38;;;0.10;100.00
62978;BME280;49073;42.352;23.808;2023-01-27T06:09:35;93710.22;;;0.03;100.00
62978;BME280;49073;42.352;23.808;2023-01-27T06:12:37;93712.97;;;0.07;100.00
62978;BME280;49073;42.352;23.808;2023-01-27T06:15:42;93723.28;;;0.12;100.00
62978;BME280;49073;42.352;23.808;2023-01-27T06:18:44;93735.31;;;-0.05;100.00
62978;BME280;49073;42.352;23.808;2023-01-27T06:21:45;93737.31;;;0.16;100.00
62978;BME280;49073;42.352;23.808;2023-01-27T06:24:45;93729.47;;;0.07;100.00
62978;BME280;49073;42.352;23.808;2023-01-27T06:27:46;93740.41;;;0.09;100.00
62978;BME280;49073;42.352;23.808;2023-01-27T06:30:47;93736.53;;;0.07;100.00
62978;BME280;49073;42.352;23.808;2023-01-27T06:33:50;93727.28;;;0.27;100.00
62978;BME280;49073;42.352;23.808;2023-01-27T06:36:54;93728.19;;;0.22;100.00
62978;BME280;49073;42.352;23.808;2023-01-27T06:39:54;93726.81;;;0.34;100.00
62978;BME280;49073;42.352;23.808;2023-01-27T06:42:54;93719.25;;;0.23;100.00
62978;BME280;49073;42.352;23.808;2023-01-27T06:45:55;93726.06;;;0.07;100.00
62978;BME280;49073;42.352;23.808;2023-01-27T06:48:58;93732.84;;;-0.10;100.00
62978;BME280;49073;42.352;23.808;2023-01-27T06:51:59;93721.31;;;-0.09;100.00
62978;BME280;49073;42.352;23.808;2023-01-27T06:55:00;93716.53;;;-0.07;100.00
62978;BME280;49073;42.352;23.808;2023-01-27T06:58:01;93718.22;;;-0.11;100.00
62978;BME280;49073;42.352;23.808;2023-01-27T07:01:03;93722.53;;;0.03;100.00
62978;BME280;49073;42.352;23.808;2023-01-27T07:04:05;93716.06;;;0.00;100.00
62978;BME280;49073;42.352;23.808;2023-01-27T07:07:05;93727.75;;;0.03;100.00
62978;BME280;49073;42.352;23.808;2023-01-27T07:10:06;93729.00;;;0.05;100.00
62978;BME280;49073;42.352;23.808;2023-01-27T07:13:09;93737.78;;;0.01;100.00
62978;BME280;49073;42.352;23.808;2023-01-27T07:16:10;93735.16;;;-0.08;100.00
62978;BME280;49073;42.352;23.808;2023-01-27T07:19:11;93737.31;;;-0.02;100.00
62978;BME280;49073;42.352;23.808;2023-01-27T07:22:12;93744.41;;;-0.11;100.00
62978;BME280;49073;42.352;23.808;2023-01-27T07:25:12;93754.41;;;-0.04;100.00
62978;BME280;49073;42.352;23.808;2023-01-27T07:28:13;93757.50;;;-0.02;100.00
62978;BME280;49073;42.352;23.808;2023-01-27T07:31:14;93750.25;;;0.30;100.00
62978;BME280;49073;42.352;23.808;2023-01-27T07:34:14;93733.44;;;0.31;100.00
62978;BME280;49073;42.352;23.808;2023-01-27T07:37:15;93738.53;;;0.19;100.00
62978;BME280;49073;42.352;23.808;2023-01-27T07:40:16;93744.69;;;0.23;100.00
62978;BME280;49073;42.352;23.808;2023-01-27T07:43:17;93744.25;;;0.21;100.00
62978;BME280;49073;42.352;23.808;2023-01-27T07:46:18;93738.38;;;0.24;100.00
62978;BME280;49073;42.352;23.808;2023-01-27T07:49:19;93732.31;;;0.50;100.00
62978;BME280;49073;42.352;23.808;2023-01-27T07:52:19;93732.03;;;0.42;100.00
62978;BME280;49073;42.352;23.808;2023-01-27T07:55:20;93735.28;;;0.39;100.00
62978;BME280;49073;42.352;23.808;2023-01-27T07:58:20;93742.53;;;0.25;100.00
62978;BME280;49073;42.352;23.808;2023-01-27T08:01:21;93738.22;;;0.29;100.00
62978;BME280;49073;42.352;23.808;2023-01-27T08:04:21;93740.38;;;0.27;100.00
62978;BME280;49073;42.352;23.808;2023-01-27T08:07:22;93733.75;;;0.21;100.00
62978;BME280;49073;42.352;23.808;2023-01-27T08:10:22;93730.97;;;0.17;100.00
62978;BME280;49073;42.352;23.808;2023-01-27T08:13:23;93740.41;;;0.09;100.00
62978;BME280;49073;42.352;23.808;2023-01-27T08:16:23;93741.94;;;0.10;100.00
62978;BME280;49073;42.352;23.808;2023-01-27T08:19:24;93745.63;;;0.18;100.00
62978;BME280;49073;42.352;23.808;2023-01-27T08:22:27;93741.13;;;0.27;100.00
62978;BME280;49073;42.352;23.808;2023-01-27T08:25:27;93748.25;;;0.27;100.00
62978;BME280;49073;42.352;23.808;2023-01-27T08:28:29;93750.84;;;0.27;100.00
62978;BME280;49073;42.352;23.808;2023-01-27T08:31:30;93748.84;;;0.15;100.00
62978;BME280;49073;42.352;23.808;2023-01-27T08:34:30;93748.69;;;0.29;100.00
62978;BME280;49073;42.352;23.808;2023-01-27T08:37:32;93742.69;;;0.28;100.00
62978;BME280;49073;42.352;23.808;2023-01-27T08:40:32;93734.66;;;0.42;100.00
62978;BME280;49073;42.352;23.808;2023-01-27T08:43:33;93729.84;;;0.62;100.00
62978;BME280;49073;42.352;23.808;2023-01-27T08:46:33;93732.00;;;0.51;100.00
62978;BME280;49073;42.352;23.808;2023-01-27T08:49:34;93735.59;;;0.38;100.00
62978;BME280;49073;42.352;23.808;2023-01-27T08:52:34;93734.03;;;0.46;100.00
62978;BME280;49073;42.352;23.808;2023-01-27T08:55:35;93734.97;;;0.41;100.00
62978;BME280;49073;42.352;23.808;2023-01-27T08:58:36;93736.19;;;0.43;100.00
62978;BME280;49073;42.352;23.808;2023-01-27T09:01:37;93739.25;;;0.54;100.00
62978;BME280;49073;42.352;23.808;2023-01-27T09:04:38;93731.69;;;0.53;100.00
62978;BME280;49073;42.352;23.808;2023-01-27T09:07:44;93730.75;;;0.57;100.00
62978;BME280;49073;42.352;23.808;2023-01-27T09:10:45;93727.97;;;0.63;100.00
62978;BME280;49073;42.352;23.808;2023-01-27T09:13:45;93723.34;;;0.68;100.00
62978;BME280;49073;42.352;23.808;2023-01-27T09:16:46;93725.06;;;0.64;100.00
62978;BME280;49073;42.352;23.808;2023-01-27T09:19:46;93722.72;;;0.71;100.00
62978;BME280;49073;42.352;23.808;2023-01-27T09:22:47;93712.84;;;0.68;100.00
62978;BME280;49073;42.352;23.808;2023-01-27T09:25:49;93708.69;;;0.67;100.00
62978;BME280;49073;42.352;23.808;2023-01-27T09:28:49;93708.81;;;0.71;100.00
62978;BME280;49073;42.352;23.808;2023-01-27T09:31:50;93700.03;;;0.76;100.00
62978;BME280;49073;42.352;23.808;2023-01-27T09:34:50;93709.72;;;0.75;100.00
62978;BME280;49073;42.352;23.808;2023-01-27T09:37:54;93710.22;;;0.68;100.00
62978;BME280;49073;42.352;23.808;2023-01-27T09:44:51;93703.84;;;0.78;100.00
62978;BME280;49073;42.352;23.808;2023-01-27T09:52:09;93706.94;;;0.80;100.00
62978;BME280;49073;42.352;23.808;2023-01-27T09:55:20;93700.16;;;0.79;100.00
62978;BME280;49073;42.352;23.808;2023-01-27T10:08:16;93692.91;;;0.76;100.00
62978;BME280;49073;42.352;23.808;2023-01-27T10:28:15;93676.09;;;0.77;100.00
62978;BME280;49073;42.352;23.808;2023-01-27T10:31:23;93662.69;;;0.79;100.00
62978;BME280;49073;42.352;23.808;2023-01-27T10:34:31;93666.38;;;0.78;100.00
62978;BME280;49073;42.352;23.808;2023-01-27T10:50:51;93638.38;;;0.61;100.00
62978;BME280;49073;42.352;23.808;2023-01-27T10:54:08;93644.09;;;0.54;100.00
62978;BME280;49073;42.352;23.808;2023-01-27T10:57:17;93645.34;;;0.56;100.00
62978;BME280;49073;42.352;23.808;2023-01-27T11:00:35;93641.03;;;0.52;100.00
62978;BME280;49073;42.352;23.808;2023-01-27T11:03:43;93644.25;;;0.57;100.00
62978;BME280;49073;42.352;23.808;2023-01-27T11:06:47;93652.09;;;0.66;100.00
62978;BME280;49073;42.352;23.808;2023-01-27T11:10:02;93643.59;;;0.69;100.00
62978;BME280;49073;42.352;23.808;2023-01-27T11:13:07;93641.72;;;0.70;100.00
62978;BME280;49073;42.352;23.808;2023-01-27T11:16:14;93647.75;;;0.70;100.00
62978;BME280;49073;42.352;23.808;2023-01-27T11:19:42;93642.50;;;0.70;100.00
62978;BME280;49073;42.352;23.808;2023-01-27T11:22:56;93639.72;;;0.76;100.00
62978;BME280;49073;42.352;23.808;2023-01-27T11:26:25;93632.94;;;0.75;100.00
62978;BME280;49073;42.352;23.808;2023-01-27T11:35:50;93641.03;;;0.91;100.00
62978;BME280;49073;42.352;23.808;2023-01-27T11:38:54;93627.97;;;0.82;100.00
62978;BME280;49073;42.352;23.808;2023-01-27T11:41:55;93632.88;;;0.83;100.00
62978;BME280;49073;42.352;23.808;2023-01-27T11:44:56;93628.44;;;0.75;100.00
62978;BME280;49073;42.352;23.808;2023-01-27T11:47:59;93628.44;;;0.75;100.00
62978;BME280;49073;42.352;23.808;2023-01-27T11:51:01;93633.97;;;0.82;100.00
62978;BME280;49073;42.352;23.808;2023-01-27T11:54:35;93626.41;;;0.81;100.00
62978;BME280;49073;42.352;23.808;2023-01-27T11:57:42;93625.97;;;0.79;100.00
62978;BME280;49073;42.352;23.808;2023-01-27T12:00:57;93620.28;;;0.77;100.00
62978;BME280;49073;42.352;23.808;2023-01-27T12:04:03;93630.31;;;0.75;100.00
62978;BME280;49073;42.352;23.808;2023-01-27T12:07:15;93634.13;;;0.77;100.00
62978;BME280;49073;42.352;23.808;2023-01-27T12:13:30;93631.63;;;0.90;100.00
62978;BME280;49073;42.352;23.808;2023-01-27T12:16:44;93628.69;;;0.91;100.00
62978;BME280;49073;42.352;23.808;2023-01-27T12:19:47;93630.53;;;0.91;100.00
62978;BME280;49073;42.352;23.808;2023-01-27T12:22:52;93626.69;;;0.88;100.00
62978;BME280;49073;42.352;23.808;2023-01-27T12:26:02;93628.53;;;0.87;100.00
62978;BME280;49073;42.352;23.808;2023-01-27T12:29:12;93630.84;;;0.89;100.00
62978;BME280;49073;42.352;23.808;2023-01-27T12:32:47;93628.69;;;0.91;100.00
62978;BME280;49073;42.352;23.808;2023-01-27T12:35:49;93619.28;;;0.90;100.00
62978;BME280;49073;42.352;23.808;2023-01-27T12:38:57;93616.50;;;0.86;100.00
62978;BME280;49073;42.352;23.808;2023-01-27T12:41:59;93613.50;;;0.76;100.00
62978;BME280;49073;42.352;23.808;2023-01-27T12:45:18;93616.56;;;0.78;100.00
62978;BME280;49073;42.352;23.808;2023-01-27T12:48:20;93619.50;;;0.76;100.00
62978;BME280;49073;42.352;23.808;2023-01-27T12:51:23;93617.84;;;0.71;100.00
62978;BME280;49073;42.352;23.808;2023-01-27T12:54:35;93615.50;;;0.70;100.00
62978;BME280;49073;42.352;23.808;2023-01-27T12:57:42;93625.09;;;0.66;100.00
62978;BME280;49073;42.352;23.808;2023-01-27T13:00:44;93627.25;;;0.72;100.00
62978;BME280;49073;42.352;23.808;2023-01-27T13:04:34;93617.56;;;0.64;100.00
62978;BME280;49073;42.352;23.808;2023-01-27T13:07:16;93619.88;;;0.57;100.00
62978;BME280;49073;42.352;23.808;2023-01-27T13:10:22;93612.50;;;0.59;100.00
62978;BME280;49073;42.352;23.808;2023-01-27T13:13:26;93605.25;;;0.56;100.00
62978;BME280;49073;42.352;23.808;2023-01-27T13:16:28;93611.72;;;0.58;100.00
62978;BME280;49073;42.352;23.808;2023-01-27T13:19:39;93605.25;;;0.56;100.00
62978;BME280;49073;42.352;23.808;2023-01-27T13:23:01;93609.13;;;0.50;100.00
62978;BME280;49073;42.352;23.808;2023-01-27T13:29:16;93623.50;;;0.43;100.00
62978;BME280;49073;42.352;23.808;2023-01-27T13:32:28;93634.59;;;0.40;100.00
62978;BME280;49073;42.352;23.808;2023-01-27T13:35:40;93630.91;;;0.41;100.00
62978;BME280;49073;42.352;23.808;2023-01-27T13:42:36;93635.69;;;0.39;100.00
62978;BME280;49073;42.352;23.808;2023-01-27T13:45:42;93627.81;;;0.39;100.00
62978;BME280;49073;42.352;23.808;2023-01-27T13:48:51;93635.22;;;0.37;100.00
62978;BME280;49073;42.352;23.808;2023-01-27T13:51:53;93635.69;;;0.39;100.00
62978;BME280;49073;42.352;23.808;2023-01-27T13:54:54;93634.31;;;0.42;100.00
62978;BME280;49073;42.352;23.808;2023-01-27T14:01:23;93642.34;;;0.28;100.00
62978;BME280;49073;42.352;23.808;2023-01-27T14:12:03;93647.59;;;0.19;100.00
62978;BME280;49073;42.352;23.808;2023-01-27T14:18:33;93655.47;;;0.19;100.00
62978;BME280;49073;42.352;23.808;2023-01-27T14:21:55;93651.63;;;0.17;100.00
62978;BME280;49073;42.352;23.808;2023-01-27T14:25:12;93645.47;;;0.12;100.00
62978;BME280;49073;42.352;23.808;2023-01-27T14:28:35;93657.78;;;0.12;100.00
62978;BME280;49073;42.352;23.808;2023-01-27T14:41:35;93659.66;;;0.03;100.00
62978;BME280;49073;42.352;23.808;2023-01-27T14:45:02;93662.44;;;0.06;100.00
62978;BME280;49073;42.352;23.808;2023-01-27T14:51:43;93658.75;;;-0.02;100.00
62978;BME280;49073;42.352;23.808;2023-01-27T14:55:10;93655.84;;;0.00;100.00
62978;BME280;49073;42.352;23.808;2023-01-27T15:05:16;93676.47;;;-0.07;100.00
62978;BME280;49073;42.352;23.808;2023-01-27T15:25:27;93677.84;;;0.08;100.00
62978;BME280;49073;42.352;23.808;2023-01-27T15:28:34;93678.47;;;0.13;100.00
62978;BME280;49073;42.352;23.808;2023-01-27T15:31:36;93690.31;;;0.20;100.00
62978;BME280;49073;42.352;23.808;2023-01-27T15:34:37;93697.84;;;0.30;100.00
62978;BME280;49073;42.352;23.808;2023-01-27T15:37:57;93693.84;;;0.33;100.00
62978;BME280;49073;42.352;23.808;2023-01-27T15:41:09;93695.03;;;0.35;100.00
62978;BME280;49073;42.352;23.808;2023-01-27T15:44:29;93703.06;;;0.39;100.00
62978;BME280;49073;42.352;23.808;2023-01-27T15:47:31;93710.75;;;0.44;100.00
62978;BME280;49073;42.352;23.808;2023-01-27T15:53:51;93713.50;;;0.48;100.00
62978;BME280;49073;42.352;23.808;2023-01-27T15:56:54;93726.31;;;0.49;100.00
62978;BME280;49073;42.352;23.808;2023-01-27T16:00:02;93722.75;;;0.54;100.00
62978;BME280;49073;42.352;23.808;2023-01-27T16:06:35;93722.00;;;0.53;100.00
62978;BME280;49073;42.352;23.808;2023-01-27T16:09:46;93722.75;;;0.54;100.00
62978;BME280;49073;42.352;23.808;2023-01-27T16:12:49;93725.81;;;0.56;100.00
62978;BME280;49073;42.352;23.808;2023-01-27T16:16:27;93732.94;;;0.55;100.00
62978;BME280;49073;42.352;23.808;2023-01-27T16:19:32;93729.22;;;0.56;100.00
62978;BME280;49073;42.352;23.808;2023-01-27T16:22:37;93727.34;;;0.57;100.00
62978;BME280;49073;42.352;23.808;2023-01-27T16:25:49;93732.19;;;0.46;100.00
62978;BME280;49073;42.352;23.808;2023-01-27T16:28:59;93735.84;;;0.54;100.00
62978;BME280;49073;42.352;23.808;2023-01-27T16:32:26;93738.47;;;0.54;100.00
62978;BME280;49073;42.352;23.808;2023-01-27T16:35:50;93743.44;;;0.47;100.00
62978;BME280;49073;42.352;23.808;2023-01-27T16:38:53;93744.50;;;0.54;100.00
62978;BME280;49073;42.352;23.808;2023-01-27T16:41:57;93743.44;;;0.47;100.00
62978;BME280;49073;42.352;23.808;2023-01-27T16:45:00;93748.81;;;0.50;100.00
62978;BME280;49073;42.352;23.808;2023-01-27T16:48:05;93750.22;;;0.48;100.00
62978;BME280;49073;42.352;23.808;2023-01-27T16:51:21;93748.66;;;0.47;100.00
62978;BME280;49073;42.352;23.808;2023-01-27T16:54:31;93747.28;;;0.40;100.00
62978;BME280;49073;42.352;23.808;2023-01-27T16:57:35;93754.84;;;0.42;100.00
62978;BME280;49073;42.352;23.808;2023-01-27T17:00:42;93758.22;;;0.42;100.00
62978;BME280;49073;42.352;23.808;2023-01-27T17:03:44;93754.25;;;0.36;100.00
62978;BME280;49073;42.352;23.808;2023-01-27T17:06:47;93762.72;;;0.42;100.00
62978;BME280;49073;42.352;23.808;2023-01-27T17:09:50;93765.97;;;0.39;100.00
62978;BME280;49073;42.352;23.808;2023-01-27T17:12:51;93765.00;;;0.43;100.00
62978;BME280;49073;42.352;23.808;2023-01-27T17:15:52;93767.19;;;0.41;100.00
62978;BME280;49073;42.352;23.808;2023-01-27T17:18:55;93771.50;;;0.46;100.00
62978;BME280;49073;42.352;23.808;2023-01-27T17:22:02;93779.38;;;0.37;100.00
62978;BME280;49073;42.352;23.808;2023-01-27T17:25:35;93777.38;;;0.43;100.00
62978;BME280;49073;42.352;23.808;2023-01-27T17:28:37;93779.19;;;0.42;100.00
62978;BME280;49073;42.352;23.808;2023-01-27T17:31:39;93781.34;;;0.40;100.00
62978;BME280;49073;42.352;23.808;2023-01-27T17:34:40;93779.97;;;0.43;100.00
62978;BME280;49073;42.352;23.808;2023-01-27T17:37:41;93787.38;;;0.32;100.00
62978;BME280;49073;42.352;23.808;2023-01-27T17:40:47;93787.09;;;0.34;100.00
62978;BME280;49073;42.352;23.808;2023-01-27T17:43:48;93784.75;;;0.32;100.00
62978;BME280;49073;42.352;23.808;2023-01-27T17:46:49;93790.91;;;0.27;100.00
62978;BME280;49073;42.352;23.808;2023-01-27T17:49:49;93805.44;;;0.34;100.00
62978;BME280;49073;42.352;23.808;2023-01-27T17:52:52;93795.25;;;0.23;100.00
62978;BME280;49073;42.352;23.808;2023-01-27T17:55:54;93796.03;;;0.24;100.00
62978;BME280;49073;42.352;23.808;2023-01-27T17:59:03;93789.84;;;0.28;100.00
62978;BME280;49073;42.352;23.808;2023-01-27T18:02:24;93793.25;;;0.29;100.00
62978;BME280;49073;42.352;23.808;2023-01-27T18:05:29;93794.94;;;0.25;100.00
62978;BME280;49073;42.352;23.808;2023-01-27T18:08:34;93806.19;;;0.17;100.00
62978;BME280;49073;42.352;23.808;2023-01-27T18:11:35;93809.44;;;0.13;100.00